Weather at Aviosuperficie del Sole

Public forecast

Using degrees Celsius for public forecast. Weather courtesy of forecast.io.

Closest aviation weather report (METAR) to Aviosuperficie del Sole

Report is more than 6 hours old.

Closest report is Salerno Costa d'Amalfi Airport, 3.0 nm (5.5 km) E.

2023/03/28 14:50 (retrieved 10 hours ago)

LIRI 281450Z 01008KT 340V050 CAVOK 15/M05 Q1023

Closest aviation forecast (TAF) to Aviosuperficie del Sole

Forecast is more than 6 hours old.

Closest forecast is Foggia "Gino Lisa" Airport, 57.7 nm (106.9 km) NNE.

2023/03/28 18:00 Ammendment (retrieved 7 hours ago)

TAF AMD LIBF 282108Z 2818/2918 CNL